Time;durP1;ratioP1;P1;durP2;ratioP2;P2;SDS_P1;SDS_P2;PMS_P1;PMS_P2;Temp;Humidity;BMP_temperature;BMP_pressure;BME280_temperature;BME280_humidity;BME280_pressure;Samples;Min_cycle;Max_cycle;Signal;HPM_P1;HPM_P2
2020/12/27 00:00:58;;;;;;;211.90;66.92;;;;;;;-5.78;72.32;97602.34;1835477;77;25701;-83
2020/12/27 00:03:25;;;;;;;267.37;78.87;;;;;;;-5.81;72.37;97600.78;1824891;77;27488;-84
2020/12/27 00:05:52;;;;;;;231.85;73.72;;;;;;;-5.82;72.44;97591.21;1803514;77;26668;-83
2020/12/27 00:08:20;;;;;;;216.20;67.65;;;;;;;-5.82;72.51;97589.90;1810547;77;25404;-83
2020/12/27 00:10:47;;;;;;;187.12;62.58;;;;;;;-5.82;72.64;97591.21;1828700;77;25748;-83
2020/12/27 00:13:14;;;;;;;171.87;56.58;;;;;;;-5.79;72.79;97592.30;1815920;77;25679;-83
2020/12/27 00:15:43;;;;;;;128.18;48.73;;;;;;;-5.74;72.94;97586.73;1807943;77;28441;-84
2020/12/27 00:18:10;;;;;;;135.93;48.83;;;;;;;-5.68;72.94;97579.27;1819848;77;25818;-83
2020/12/27 00:20:37;;;;;;;181.00;63.30;;;;;;;-5.63;73.00;97564.00;1812402;77;25707;-83
2020/12/27 00:23:05;;;;;;;178.47;65.42;;;;;;;-5.62;72.99;97557.78;1807276;77;25611;-83
2020/12/27 00:25:35;;;;;;;184.65;68.35;;;;;;;-5.67;72.98;97559.05;1819522;77;25776;-84
2020/12/27 00:28:02;;;;;;;166.97;61.30;;;;;;;-5.76;72.99;97554.44;1829705;77;28354;-83
2020/12/27 00:30:29;;;;;;;174.12;59.90;;;;;;;-5.75;73.11;97553.02;1803274;77;25722;-84
2020/12/27 00:32:57;;;;;;;150.87;54.45;;;;;;;-5.77;73.08;97550.97;1835258;77;25723;-83
2020/12/27 00:35:24;;;;;;;131.75;52.55;;;;;;;-5.73;73.10;97554.23;1836802;77;25714;-84
2020/12/27 00:37:51;;;;;;;139.72;52.55;;;;;;;-5.77;73.11;97552.28;1827535;77;25750;-84
2020/12/27 00:40:18;;;;;;;125.53;47.03;;;;;;;-5.73;73.13;97548.97;1830057;77;27534;-83
2020/12/27 00:42:46;;;;;;;118.87;44.93;;;;;;;-5.77;72.92;97559.33;1848892;77;25714;-83
2020/12/27 00:45:13;;;;;;;102.85;41.92;;;;;;;-5.78;72.97;97562.90;1848886;77;25754;-83
2020/12/27 00:47:40;;;;;;;101.00;40.17;;;;;;;-5.79;73.00;97560.74;1833965;77;25741;-84
2020/12/27 00:50:08;;;;;;;122.78;45.33;;;;;;;-5.78;72.99;97563.74;1807841;77;25679;-84
2020/12/27 00:52:35;;;;;;;140.37;49.27;;;;;;;-5.78;72.95;97559.80;1807855;77;27541;-83
2020/12/27 00:55:02;;;;;;;210.68;71.25;;;;;;;-5.80;72.93;97557.27;1828571;77;26311;-83
2020/12/27 00:57:30;;;;;;;164.82;55.30;;;;;;;-5.78;72.95;97554.54;1848339;77;25948;-84
2020/12/27 00:59:57;;;;;;;165.52;53.13;;;;;;;-5.75;72.95;97550.86;1845534;77;25794;-83
2020/12/27 01:02:25;;;;;;;124.85;43.28;;;;;;;-5.78;72.87;97549.28;1818182;77;25888;-84
2020/12/27 01:04:52;;;;;;;111.62;39.40;;;;;;;-5.83;72.87;97553.56;1845496;77;28533;-84
2020/12/27 01:07:19;;;;;;;106.10;39.00;;;;;;;-5.84;72.88;97550.56;1829010;77;26311;-83
2020/12/27 01:09:47;;;;;;;95.92;34.78;;;;;;;-5.84;72.84;97549.72;1825950;77;26231;-83
2020/12/27 01:12:15;;;;;;;117.77;40.10;;;;;;;-5.84;72.91;97547.09;1836754;77;25678;-84
2020/12/27 01:14:42;;;;;;;103.67;37.85;;;;;;;-5.82;72.95;97542.10;1842783;77;25821;-84
2020/12/27 01:17:09;;;;;;;95.55;37.78;;;;;;;-5.81;72.87;97539.00;1819231;77;27543;-84
2020/12/27 01:19:37;;;;;;;108.50;41.98;;;;;;;-5.91;72.66;97536.66;1826886;77;25737;-83
2020/12/27 01:22:04;;;;;;;116.17;45.50;;;;;;;-6.03;72.68;97537.50;1796832;77;25723;-84
2020/12/27 01:24:31;;;;;;;128.82;48.68;;;;;;;-6.08;72.81;97540.94;1829413;77;26376;-84
2020/12/27 01:26:59;;;;;;;152.62;56.92;;;;;;;-6.09;72.89;97536.63;1793992;77;25718;-84
2020/12/27 01:29:26;;;;;;;138.25;53.73;;;;;;;-6.04;73.00;97523.55;1821707;77;27539;-84
2020/12/27 01:32:00;;;;;;;137.95;56.00;;;;;;;-6.02;72.95;97526.89;1843961;77;26490;-84
2020/12/27 01:34:22;;;;;;;150.50;53.68;;;;;;;-6.01;72.82;97523.78;1818638;77;26230;-83
2020/12/27 01:36:50;;;;;;;153.68;54.58;;;;;;;-6.01;72.83;97516.74;1836636;77;25710;-84
2020/12/27 01:39:17;;;;;;;124.67;46.77;;;;;;;-6.03;72.73;97514.69;1806490;77;25819;-84
2020/12/27 01:41:44;;;;;;;116.97;42.30;;;;;;;-6.07;72.80;97521.59;1818673;77;28488;-84
2020/12/27 01:44:14;;;;;;;105.45;38.98;;;;;;;-6.10;72.81;97513.92;1841280;77;25818;-84
2020/12/27 01:46:47;;;;;;;89.47;32.78;;;;;;;-6.14;72.82;97514.59;1817781;77;25730;-84
2020/12/27 01:49:14;;;;;;;97.20;35.43;;;;;;;-6.13;72.93;97506.24;1818675;77;27052;-83
2020/12/27 01:51:41;;;;;;;138.20;47.35;;;;;;;-6.12;72.97;97500.04;1851173;77;25734;-84
2020/12/27 01:54:09;;;;;;;158.35;50.88;;;;;;;-6.09;72.93;97486.70;1846789;77;27478;-84
2020/12/27 01:56:45;;;;;;;119.08;41.88;;;;;;;-6.10;72.86;97479.76;1849370;77;25702;-84
2020/12/27 01:59:18;;;;;;;104.90;39.45;;;;;;;-6.13;72.80;97479.97;1850990;77;25858;-84
2020/12/27 02:01:46;;;;;;;108.27;40.35;;;;;;;-6.17;72.81;97468.00;1851158;77;25825;-83
2020/12/27 02:04:13;;;;;;;131.43;41.15;;;;;;;-6.19;72.80;97466.33;1831139;77;25758;-84
2020/12/27 02:06:41;;;;;;;93.37;32.17;;;;;;;-6.17;72.80;97471.95;1841283;77;27459;-84
2020/12/27 02:09:11;;;;;;;77.37;29.95;;;;;;;-6.23;72.72;97458.28;1835608;77;26125;-84
2020/12/27 02:11:38;;;;;;;65.55;25.15;;;;;;;-6.28;72.79;97451.17;1851542;77;25789;-84
2020/12/27 02:14:05;;;;;;;73.37;28.23;;;;;;;-6.27;72.96;97452.86;1836036;77;25837;-84
2020/12/27 02:16:33;;;;;;;73.70;29.30;;;;;;;-6.29;72.78;97454.78;1818698;77;25841;-84
2020/12/27 02:19:04;;;;;;;77.12;30.35;;;;;;;-6.32;72.82;97453.67;1832861;77;27528;-84
2020/12/27 02:21:31;;;;;;;82.13;29.13;;;;;;;-6.34;72.77;97445.52;1833411;77;25727;-84
2020/12/27 02:24:00;;;;;;;107.83;34.70;;;;;;;-6.37;72.79;97446.56;1851501;77;25758;-84
2020/12/27 02:26:28;;;;;;;89.10;31.65;;;;;;;-6.34;72.82;97443.73;1831508;77;25565;-84
2020/12/27 02:28:57;;;;;;;84.97;34.50;;;;;;;-6.32;72.85;97430.03;1841667;77;25775;-84
2020/12/27 02:31:26;;;;;;;94.47;37.05;;;;;;;-6.30;72.82;97429.45;1836073;77;27478;-84
2020/12/27 02:33:56;;;;;;;111.20;44.10;;;;;;;-6.32;72.77;97428.72;1851371;77;26468;-83
2020/12/27 02:36:24;;;;;;;108.10;35.03;;;;;;;-6.38;72.65;97423.03;1835065;77;25648;-84
2020/12/27 02:38:51;;;;;;;87.30;31.27;;;;;;;-6.45;72.63;97429.20;1841597;77;25802;-84
2020/12/27 02:41:23;;;;;;;72.12;26.20;;;;;;;-6.48;72.74;97421.99;1831845;77;26264;-84
2020/12/27 02:43:50;;;;;;;70.05;26.05;;;;;;;-6.52;72.68;97429.27;1828143;77;27655;-84
2020/12/27 02:46:22;;;;;;;53.75;23.42;;;;;;;-6.60;72.50;97419.73;1839194;77;25741;-84
2020/12/27 02:48:51;;;;;;;78.80;25.10;;;;;;;-6.62;72.67;97415.06;1818495;77;25734;-84
2020/12/27 02:51:20;;;;;;;88.10;31.60;;;;;;;-6.62;72.79;97408.50;1833225;77;25758;-84
2020/12/27 02:53:48;;;;;;;80.28;31.00;;;;;;;-6.61;72.79;97415.43;1832097;77;25781;-84
2020/12/27 02:56:21;;;;;;;103.70;39.42;;;;;;;-6.64;72.76;97409.10;1827865;77;28441;-83
2020/12/27 02:58:49;;;;;;;96.60;38.65;;;;;;;-6.62;72.77;97398.84;1851526;77;26006;-84
2020/12/27 03:01:17;;;;;;;161.45;51.40;;;;;;;-6.60;72.75;97389.55;1843858;77;25833;-84
2020/12/27 03:03:45;;;;;;;175.62;51.08;;;;;;;-6.60;72.73;97390.86;1836384;77;25755;-84
2020/12/27 03:06:12;;;;;;;122.13;39.25;;;;;;;-6.59;72.70;97383.34;1842687;77;25868;-84
2020/12/27 03:08:40;;;;;;;79.45;29.30;;;;;;;-6.60;72.72;97393.02;1806309;77;27554;-84
2020/12/27 03:11:08;;;;;;;72.90;25.12;;;;;;;-6.59;72.77;97387.29;1820938;77;25717;-84
2020/12/27 03:13:36;;;;;;;69.65;25.32;;;;;;;-6.56;72.80;97377.89;1851615;77;25720;-84
2020/12/27 03:16:06;;;;;;;56.60;24.20;;;;;;;-6.57;72.74;97387.55;1851550;77;25776;-84
2020/12/27 03:18:33;;;;;;;54.55;22.80;;;;;;;-6.64;72.65;97377.59;1827864;77;26350;-84
2020/12/27 03:21:00;;;;;;;54.48;21.73;;;;;;;-6.69;72.71;97369.19;1836107;77;27531;-84
2020/12/27 03:23:28;;;;;;;55.25;22.50;;;;;;;-6.69;72.82;97361.31;1817999;77;25750;-83
2020/12/27 03:25:55;;;;;;;53.17;21.25;;;;;;;-6.72;72.70;97362.36;1830854;77;25740;-84
2020/12/27 03:28:22;;;;;;;58.48;22.85;;;;;;;-6.73;72.78;97359.83;1828278;77;25731;-84
2020/12/27 03:30:50;;;;;;;51.85;21.50;;;;;;;-6.75;72.74;97354.69;1828056;77;25727;-84
2020/12/27 03:33:17;;;;;;;61.50;22.98;;;;;;;-6.77;72.73;97342.64;1851569;77;27584;-84
2020/12/27 03:35:44;;;;;;;45.33;18.27;;;;;;;-6.78;72.75;97346.20;1851464;77;25644;-84
2020/12/27 03:38:11;;;;;;;47.73;18.17;;;;;;;-6.79;72.77;97336.65;1851370;77;25829;-84
2020/12/27 03:40:39;;;;;;;48.28;19.87;;;;;;;-6.78;72.78;97336.55;1846836;77;26527;-84
2020/12/27 03:43:06;;;;;;;44.35;18.05;;;;;;;-6.75;72.78;97338.09;1833292;77;25715;-84
2020/12/27 03:45:33;;;;;;;40.58;16.75;;;;;;;-6.79;72.72;97329.62;1825984;77;27487;-84
2020/12/27 03:48:01;;;;;;;35.08;15.38;;;;;;;-6.84;72.70;97325.62;1818239;77;26178;-84
2020/12/27 03:50:28;;;;;;;83.25;28.67;;;;;;;-6.84;72.75;97329.55;1841044;77;26145;-84
2020/12/27 03:52:55;;;;;;;43.28;19.80;;;;;;;-6.82;72.77;97322.41;1851700;77;25735;-84
2020/12/27 03:55:23;;;;;;;36.00;16.12;;;;;;;-6.82;72.76;97313.23;1851779;77;25826;-84
2020/12/27 03:57:50;;;;;;;45.58;18.00;;;;;;;-6.84;72.78;97310.70;1851684;77;27549;-84
2020/12/27 04:00:18;;;;;;;34.80;15.30;;;;;;;-6.82;72.76;97307.98;1851591;77;25769;-84
2020/12/27 04:02:45;;;;;;;30.75;14.15;;;;;;;-6.79;72.78;97305.16;1828054;77;25812;-84
2020/12/27 04:05:12;;;;;;;32.08;15.38;;;;;;;-6.76;72.84;97297.07;1851557;77;25702;-84
2020/12/27 04:07:40;;;;;;;39.50;17.55;;;;;;;-6.77;72.75;97295.39;1851696;77;26102;-84
2020/12/27 04:10:09;;;;;;;43.85;19.07;;;;;;;-6.78;72.77;97304.20;1851626;77;28797;-84
2020/12/27 04:12:36;;;;;;;38.85;19.12;;;;;;;-6.79;72.74;97292.87;1828196;77;25704;-84
2020/12/27 04:15:04;;;;;;;38.95;19.02;;;;;;;-6.80;72.64;97295.59;1824711;77;25727;-83
2020/12/27 04:17:31;;;;;;;49.48;24.95;;;;;;;-6.82;72.58;97289.61;1832476;77;26445;-83
2020/12/27 04:19:58;;;;;;;54.77;25.43;;;;;;;-6.84;72.52;97290.19;1827027;77;25392;-84
2020/12/27 04:22:26;;;;;;;44.45;19.90;;;;;;;-6.84;72.54;97292.80;1829787;77;27552;-84
2020/12/27 04:24:53;;;;;;;32.95;15.13;;;;;;;-6.86;72.51;97290.76;1814911;77;26483;-83
2020/12/27 04:27:20;;;;;;;43.55;18.37;;;;;;;-6.88;72.50;97282.98;1849885;77;25746;-84
2020/12/27 04:29:47;;;;;;;58.48;24.65;;;;;;;-6.88;72.45;97279.05;1851726;77;25802;-82
2020/12/27 04:32:15;;;;;;;60.65;22.37;;;;;;;-6.94;72.42;97276.40;1845438;77;26429;-84
2020/12/27 04:34:42;;;;;;;55.75;22.22;;;;;;;-6.95;72.43;97274.72;1802076;77;28431;-83
2020/12/27 04:37:09;;;;;;;62.15;22.30;;;;;;;-7.00;72.47;97270.25;1836288;77;25261;-83
2020/12/27 04:39:37;;;;;;;57.60;20.48;;;;;;;-7.02;72.52;97268.70;1842835;77;25337;-84
2020/12/27 04:42:04;;;;;;;50.38;19.73;;;;;;;-7.10;72.54;97264.44;1842779;77;26166;-83
2020/12/27 04:44:33;;;;;;;46.90;17.98;;;;;;;-7.13;72.59;97265.52;1831559;77;25882;-83
2020/12/27 04:47:02;;;;;;;42.25;17.40;;;;;;;-7.13;72.68;97255.02;1828488;77;26672;-83
2020/12/27 04:49:30;;;;;;;61.10;22.48;;;;;;;-7.14;72.69;97255.97;1839896;77;25690;-83
2020/12/27 04:52:03;;;;;;;63.90;26.45;;;;;;;-7.12;72.71;97251.42;1837172;77;26143;-84
2020/12/27 04:54:31;;;;;;;61.92;25.65;;;;;;;-7.11;72.61;97250.48;1834184;77;25674;-85
2020/12/27 04:57:00;;;;;;;50.65;21.75;;;;;;;-7.18;72.47;97247.09;1842142;77;25793;-84
2020/12/27 04:59:27;;;;;;;55.78;21.52;;;;;;;-7.29;72.45;97244.74;1842524;77;27580;-84
2020/12/27 05:01:55;;;;;;;39.78;17.52;;;;;;;-7.28;72.56;97241.65;1839516;77;25339;-83
2020/12/27 05:04:25;;;;;;;33.13;14.93;;;;;;;-7.23;72.63;97239.53;1832796;77;25734;-84
2020/12/27 05:06:56;;;;;;;42.15;17.35;;;;;;;-7.21;72.62;97238.95;1839654;77;25707;-84
2020/12/27 05:09:27;;;;;;;33.60;11.93;;;;;;;-7.20;72.65;97241.95;1842720;77;25292;-84
2020/12/27 05:11:56;;;;;;;41.60;16.70;;;;;;;-7.17;72.67;97239.12;1837236;77;27472;-84
2020/12/27 05:14:27;;;;;;;52.15;18.45;;;;;;;-7.14;72.64;97236.29;1831450;77;25353;-84
2020/12/27 05:16:57;;;;;;;59.03;19.75;;;;;;;-7.16;72.60;97245.20;1835720;77;25627;-84
2020/12/27 05:19:27;;;;;;;54.23;20.90;;;;;;;-7.21;72.50;97239.42;1831844;77;25724;-83
2020/12/27 05:22:08;;;;;;;54.95;21.70;;;;;;;-7.23;72.59;97234.28;1837178;77;25730;-84
2020/12/27 05:24:36;;;;;;;62.55;22.00;;;;;;;-7.26;72.53;97226.66;1817119;77;28547;-84
2020/12/27 05:27:14;;;;;;;73.00;23.32;;;;;;;-7.24;72.53;97224.73;1813223;77;25768;-84
2020/12/27 05:29:42;;;;;;;65.85;22.90;;;;;;;-7.26;72.46;97233.20;1814576;77;25687;-84
2020/12/27 05:32:11;;;;;;;64.62;22.85;;;;;;;-7.35;72.40;97225.95;1828974;77;25787;-84
2020/12/27 05:34:39;;;;;;;61.70;25.72;;;;;;;-7.36;72.46;97229.52;1842298;77;25946;-84
2020/12/27 05:37:07;;;;;;;71.17;26.80;;;;;;;-7.40;72.51;97220.20;1824302;77;27602;-84
2020/12/27 05:39:35;;;;;;;73.97;31.77;;;;;;;-7.42;72.60;97215.53;1821607;77;25768;-83
2020/12/27 05:42:05;;;;;;;87.88;36.20;;;;;;;-7.47;72.40;97218.92;1842682;77;25680;-84
2020/12/27 05:44:37;;;;;;;101.05;39.55;;;;;;;-7.59;72.29;97224.53;1831510;77;26739;-84
2020/12/27 05:47:04;;;;;;;;;;;;;;;-7.60;72.39;97228.56;1826292;77;25366;-83
2020/12/27 05:49:32;;;;;;;150.65;48.40;;;;;;;-7.67;72.25;97227.69;1837891;77;27468;-84
2020/12/27 05:52:00;;;;;;;119.10;39.70;;;;;;;-7.68;72.45;97229.94;1830553;77;25743;-83
2020/12/27 05:54:32;;;;;;;73.75;25.50;;;;;;;-7.67;72.64;97246.03;1816286;77;25710;-82
2020/12/27 05:57:03;;;;;;;53.87;22.22;;;;;;;-7.74;72.60;97243.47;1837883;77;25871;-82
2020/12/27 05:59:34;;;;;;;74.67;30.57;;;;;;;-7.85;72.70;97241.20;1818324;77;25827;-82
2020/12/27 06:02:02;;;;;;;99.92;39.63;;;;;;;-7.88;72.89;97240.92;1822802;77;27477;-82
2020/12/27 06:05:08;;;;;;;54.95;24.18;;;;;;;-7.82;73.11;97239.20;1827814;77;25764;-82
2020/12/27 06:07:44;;;;;;;93.72;35.98;;;;;;;-7.75;73.25;97227.37;1809593;77;26495;-82
2020/12/27 06:10:15;;;;;;;68.02;32.58;;;;;;;-7.70;73.31;97221.33;1809601;77;26191;-82
2020/12/27 06:13:14;;;;;;;48.87;21.33;;;;;;;-7.65;73.33;97211.86;1809425;77;25866;-82
2020/12/27 06:15:52;;;;;;;40.80;17.75;;;;;;;-7.65;73.19;97218.41;1842705;77;28427;-82
2020/12/27 06:18:27;;;;;;;45.88;20.35;;;;;;;-7.71;73.02;97220.96;1815247;77;26218;-83
2020/12/27 06:21:12;;;;;;;70.05;29.70;;;;;;;-7.72;73.10;97217.97;1787267;77;25735;-82
2020/12/27 06:23:39;;;;;;;104.15;38.90;;;;;;;-7.69;73.25;97217.77;1826333;77;25790;-83
2020/12/27 06:26:08;;;;;;;89.55;38.08;;;;;;;-7.65;73.33;97219.73;1787317;77;25800;-84
2020/12/27 06:28:35;;;;;;;93.20;39.88;;;;;;;-7.61;73.45;97213.81;1830500;77;28582;-83
2020/12/27 06:31:10;;;;;;;103.10;42.35;;;;;;;-7.57;73.52;97204.30;1842546;77;25652;-83
2020/12/27 06:33:41;;;;;;;86.08;34.78;;;;;;;-7.55;73.51;97197.65;1803598;77;25731;-83
2020/12/27 06:36:33;;;;;;;78.45;29.27;;;;;;;-7.58;73.29;97200.00;1842758;77;25775;-83
2020/12/27 06:39:21;;;;;;;32.35;16.12;;;;;;;-7.67;73.27;97197.55;1803680;77;25987;-83
2020/12/27 06:42:11;;;;;;;32.10;15.23;;;;;;;-7.73;73.15;97199.26;1840416;77;27210;-84
2020/12/27 06:44:43;;;;;;;39.65;18.85;;;;;;;-7.74;73.14;97195.45;1808267;77;25828;-83
2020/12/27 06:47:12;;;;;;;38.17;17.48;;;;;;;-7.69;73.23;97190.25;1787244;77;25663;-84
2020/12/27 06:49:40;;;;;;;51.37;20.82;;;;;;;-7.65;73.19;97181.25;1787283;77;26719;-82
2020/12/27 06:52:25;;;;;;;48.92;20.23;;;;;;;-7.73;73.02;97180.11;1803757;77;25819;-83
2020/12/27 06:54:55;;;;;;;45.85;21.27;;;;;;;-7.77;73.06;97175.53;1826995;77;28453;-84
2020/12/27 06:57:43;;;;;;;46.40;20.23;;;;;;;-7.80;73.18;97178.36;1793680;77;26114;-83
2020/12/27 07:00:31;;;;;;;57.03;24.80;;;;;;;-7.77;73.23;97184.70;1809379;77;25726;-84
2020/12/27 07:03:17;;;;;;;61.63;25.05;;;;;;;-7.77;73.26;97186.02;1832810;77;25829;-83
2020/12/27 07:05:46;;;;;;;45.78;22.27;;;;;;;-7.72;73.29;97187.84;1812434;77;25817;-84
2020/12/27 07:08:18;;;;;;;60.48;24.77;;;;;;;-7.71;73.27;97189.52;1794457;77;27538;-84
2020/12/27 07:10:52;;;;;;;52.73;22.70;;;;;;;-7.66;73.26;97179.57;1809608;77;25901;-83
2020/12/27 07:13:20;;;;;;;46.25;22.00;;;;;;;-7.61;73.14;97169.25;1814862;77;25682;-84
2020/12/27 07:15:54;;;;;;;48.63;23.38;;;;;;;-7.65;73.01;97172.08;1817833;77;26327;-83
2020/12/27 07:18:25;;;;;;;55.43;24.45;;;;;;;-7.64;73.02;97164.58;1826210;77;25722;-83
2020/12/27 07:20:59;;;;;;;46.80;24.12;;;;;;;-7.64;72.98;97164.58;1786925;77;27717;-83
2020/12/27 07:23:32;;;;;;;63.00;25.50;;;;;;;-7.60;73.02;97156.48;1818989;77;25339;-84
2020/12/27 07:26:12;;;;;;;70.40;30.35;;;;;;;-7.55;73.08;97143.44;1873079;76;34750;-84
2020/12/27 07:28:39;;;;;;;64.75;28.90;;;;;;;-7.54;73.10;97161.32;1848874;77;26444;-84
2020/12/27 07:31:07;;;;;;;75.83;31.15;;;;;;;-7.52;73.09;97154.19;1832759;77;27727;-84
2020/12/27 07:33:38;;;;;;;72.22;30.43;;;;;;;-7.50;73.12;97145.75;1833034;77;26093;-84
2020/12/27 07:36:10;;;;;;;66.90;29.63;;;;;;;-7.45;73.15;97144.47;1796399;77;26436;-84
2020/12/27 07:39:04;;;;;;;84.60;36.68;;;;;;;-7.42;73.15;97143.42;1836350;77;26019;-83
2020/12/27 07:41:37;;;;;;;140.00;49.20;;;;;;;-7.37;73.29;97150.51;1852317;77;25815;-84
2020/12/27 07:44:11;;;;;;;159.67;57.88;;;;;;;-7.30;73.38;97141.25;1847258;77;28416;-84
2020/12/27 07:46:38;;;;;;;152.10;54.30;;;;;;;-7.25;73.44;97140.94;1835515;77;25734;-85
2020/12/27 07:49:12;;;;;;;129.12;50.43;;;;;;;-7.23;73.56;97138.55;1823889;77;25768;-83
2020/12/27 07:51:40;;;;;;;105.27;41.58;;;;;;;-7.20;73.74;97133.56;1836270;77;26221;-83
2020/12/27 07:54:11;;;;;;;122.92;46.35;;;;;;;-7.15;73.82;97136.24;1828836;77;26000;-85
2020/12/27 07:56:42;;;;;;;111.90;42.67;;;;;;;-7.10;73.93;97135.89;1816640;77;27477;-84
2020/12/27 07:59:10;;;;;;;81.28;32.05;;;;;;;-7.08;73.88;97123.04;1826028;77;25761;-84
2020/12/27 08:01:37;;;;;;;76.07;30.15;;;;;;;-7.02;73.97;97127.86;1825721;77;25732;-85
2020/12/27 08:04:08;;;;;;;68.22;29.30;;;;;;;-6.94;73.99;97127.30;1813739;77;25753;-86
2020/12/27 08:06:39;;;;;;;77.95;30.02;;;;;;;-6.82;74.02;97129.52;1825754;77;25808;-85
2020/12/27 08:09:11;;;;;;;76.75;30.40;;;;;;;-6.56;73.96;97127.14;1832462;76;27472;-85
2020/12/27 08:11:42;;;;;;;73.47;28.10;;;;;;;-6.56;73.96;97127.14;1827126;77;26349;-85
2020/12/27 08:14:12;;;;;;;80.32;30.90;;;;;;;-6.48;73.80;97130.03;1815960;77;25784;-85
2020/12/27 08:16:43;;;;;;;75.80;30.97;;;;;;;-6.35;73.83;97118.98;1848918;76;26591;-84
2020/12/27 08:19:14;;;;;;;63.58;29.30;;;;;;;-6.22;73.79;97119.73;1832809;77;25838;-84
2020/12/27 08:21:46;;;;;;;74.47;33.10;;;;;;;-6.09;73.76;97108.30;1836400;77;27526;-84
2020/12/27 08:24:14;;;;;;;;;;;;;;;-6.01;73.73;97119.06;1834987;77;25792;-86
2020/12/27 08:26:48;;;;;;;61.10;25.25;;;;;;;-5.87;73.77;97113.56;1845214;77;25768;-87
2020/12/27 08:29:18;;;;;;;;;;;;;;;-5.69;73.83;97110.02;1847934;77;26615;-85
2020/12/27 08:31:48;;;;;;;63.58;28.92;;;;;;;-5.52;73.82;97106.42;1840315;77;25761;-85
2020/12/27 08:34:23;;;;;;;61.35;29.82;;;;;;;-5.31;73.83;97097.83;1850792;77;27476;-85
2020/12/27 08:36:53;;;;;;;51.63;27.35;;;;;;;-5.15;73.79;97100.42;1847757;77;25823;-85
2020/12/27 08:39:31;;;;;;;66.53;29.70;;;;;;;-5.00;73.73;97104.95;1828815;76;25777;-85
2020/12/27 08:42:22;;;;;;;85.90;35.40;;;;;;;-4.82;73.77;97103.45;1821773;77;25739;-85
2020/12/27 08:45:05;;;;;;;57.93;26.33;;;;;;;-4.56;73.63;97101.34;1821718;77;25750;-86
2020/12/27 08:47:53;;;;;;;71.95;27.77;;;;;;;-4.35;73.38;97115.89;1821791;77;28376;-86
2020/12/27 08:50:27;;;;;;;60.15;23.98;;;;;;;-4.04;73.33;97099.19;1821602;77;25806;-82
2020/12/27 08:52:57;;;;;;;61.65;26.35;;;;;;;-3.70;73.22;97080.50;1808828;77;25805;-85
2020/12/27 08:55:30;;;;;;;48.10;22.90;;;;;;;-3.33;73.11;97080.32;1821792;77;25724;-83
2020/12/27 08:58:01;;;;;;;45.83;21.87;;;;;;;-2.98;72.80;97069.78;1828657;77;25295;-82
2020/12/27 09:00:35;;;;;;;42.77;21.40;;;;;;;-2.70;72.47;97072.13;1821830;77;27552;-82
2020/12/27 09:03:05;;;;;;;39.73;20.32;;;;;;;-2.43;72.20;97075.43;1817978;77;25673;-85
2020/12/27 09:05:35;;;;;;;49.53;21.57;;;;;;;-2.18;71.93;97062.97;1815004;77;25298;-85
2020/12/27 09:08:15;;;;;;;47.90;22.67;;;;;;;-1.99;71.75;97056.31;1817542;77;26193;-84
2020/12/27 09:10:42;;;;;;;48.45;24.12;;;;;;;-1.88;71.40;97045.57;1820803;77;25736;-83
2020/12/27 09:13:13;;;;;;;50.45;25.08;;;;;;;-1.71;71.34;97049.78;1817989;77;27767;-82
2020/12/27 09:15:47;;;;;;;50.23;23.70;;;;;;;-1.55;71.28;97053.96;1831065;77;26619;-82
2020/12/27 09:18:18;;;;;;;46.80;22.73;;;;;;;-1.35;71.09;97043.66;1855337;76;25808;-82
2020/12/27 09:20:47;;;;;;;42.25;21.90;;;;;;;-1.25;70.65;97040.95;1812186;78;25721;-84
2020/12/27 09:23:18;;;;;;;37.05;19.32;;;;;;;-1.11;70.37;97045.28;1849728;77;25779;-85
2020/12/27 09:25:48;;;;;;;35.00;18.20;;;;;;;-0.93;70.29;97052.41;1809490;77;27508;-85
2020/12/27 09:28:19;;;;;;;33.85;18.00;;;;;;;-0.75;69.92;97043.53;1815646;77;25697;-81
2020/12/27 09:31:02;;;;;;;26.70;14.75;;;;;;;-0.53;69.84;97030.80;1779595;80;25712;-86
2020/12/27 09:33:36;;;;;;;31.48;17.30;;;;;;;-0.36;69.59;97021.99;1744558;80;25786;-82
2020/12/27 09:36:08;;;;;;;31.60;16.60;;;;;;;-0.15;69.50;97009.26;1738851;79;25917;-82
2020/12/27 09:38:42;;;;;;;33.85;17.30;;;;;;;0.03;69.26;97011.86;1754608;79;27705;-81
2020/12/27 09:41:16;;;;;;;39.55;19.45;;;;;;;0.10;68.64;97005.45;1755924;79;26304;-86
2020/12/27 09:43:54;;;;;;;39.67;19.82;;;;;;;0.24;68.56;97000.38;1756547;79;25822;-82
2020/12/27 09:46:51;;;;;;;41.33;19.73;;;;;;;0.48;68.42;97000.20;1744504;79;26435;-81
2020/12/27 09:49:32;;;;;;;40.23;18.48;;;;;;;0.76;68.13;96994.16;1750014;79;25873;-80
2020/12/27 09:52:13;;;;;;;38.85;18.55;;;;;;;1.04;67.96;96984.95;1747358;79;26205;-82
2020/12/27 09:54:44;;;;;;;45.92;21.25;;;;;;;1.27;67.58;96993.14;1745793;79;26026;-81
2020/12/27 09:57:17;;;;;;;51.53;23.75;;;;;;;1.45;67.17;96978.70;1745437;79;25780;-83
2020/12/27 09:59:48;;;;;;;47.98;21.73;;;;;;;1.56;67.03;96960.78;1762591;79;26076;-79
2020/12/27 10:02:17;;;;;;;47.95;23.47;;;;;;;1.71;66.87;96954.60;1760572;79;25841;-83
2020/12/27 10:04:45;;;;;;;40.83;19.62;;;;;;;1.84;66.49;96956.75;1763871;79;27512;-78
2020/12/27 10:07:13;;;;;;;51.77;22.27;;;;;;;1.97;66.01;96950.92;1763790;79;25774;-85
2020/12/27 10:09:40;;;;;;;29.27;14.85;;;;;;;2.03;65.95;96942.27;1763897;81;25754;-80
2020/12/27 10:12:07;;;;;;;34.15;16.60;;;;;;;2.17;65.99;96934.92;1763668;79;26503;-85
2020/12/27 10:14:35;;;;;;;23.47;12.50;;;;;;;2.36;65.68;96926.53;1763969;79;25818;-77
2020/12/27 10:17:03;;;;;;;25.17;13.03;;;;;;;2.46;65.29;96915.17;1763719;81;27541;-77
2020/12/27 10:19:32;;;;;;;26.10;14.43;;;;;;;2.62;65.05;96897.45;1763022;81;25878;-78
2020/12/27 10:22:00;;;;;;;29.27;14.53;;;;;;;2.83;65.07;96890.50;1763448;81;26214;-82
2020/12/27 10:24:31;;;;;;;31.82;16.05;;;;;;;3.04;64.89;96889.87;1762930;81;25743;-79
2020/12/27 10:26:57;;;;;;;38.48;18.48;;;;;;;3.17;64.39;96875.95;1774883;79;25858;-79
2020/12/27 10:29:24;;;;;;;32.75;16.52;;;;;;;3.31;64.30;96865.01;1776680;80;27480;-80
2020/12/27 10:31:58;;;;;;;31.37;17.40;;;;;;;3.46;63.86;96871.23;1776464;80;25664;-83
2020/12/27 10:34:27;;;;;;;30.37;15.95;;;;;;;3.64;63.34;96867.71;1777124;80;25757;-80
2020/12/27 10:36:57;;;;;;;27.02;14.83;;;;;;;3.90;63.37;96857.45;1777057;80;25754;-83
2020/12/27 10:39:25;;;;;;;26.48;16.02;;;;;;;4.14;62.61;96850.17;1777159;80;25754;-84
2020/12/27 10:41:54;;;;;;;29.40;15.70;;;;;;;4.38;62.33;96847.21;1777109;80;28485;-85
2020/12/27 10:44:23;;;;;;;24.07;14.10;;;;;;;4.56;61.42;96840.15;1777009;80;26252;-80
2020/12/27 10:46:51;;;;;;;24.05;13.50;;;;;;;4.68;61.14;96832.80;1777030;80;25651;-82
2020/12/27 10:49:21;;;;;;;24.43;14.30;;;;;;;4.88;61.17;96818.80;1776919;80;25777;-81
2020/12/27 10:51:49;;;;;;;25.90;14.93;;;;;;;5.02;60.69;96807.22;1760427;80;25857;-81
2020/12/27 10:54:16;;;;;;;23.80;13.78;;;;;;;5.23;60.61;96803.70;1772417;80;27705;-82
2020/12/27 10:56:46;;;;;;;39.40;21.40;;;;;;;5.48;59.96;96789.39;1776976;80;26424;-81
2020/12/27 10:59:14;;;;;;;30.08;16.60;;;;;;;5.57;59.35;96794.41;1776975;80;25277;-82
2020/12/27 11:01:44;;;;;;;31.00;17.37;;;;;;;5.74;59.51;96785.58;1777021;80;25700;-82
2020/12/27 11:04:12;;;;;;;22.32;13.45;;;;;;;5.77;58.72;96783.34;1777032;80;25985;-84
2020/12/27 11:06:40;;;;;;;26.05;15.28;;;;;;;5.76;58.35;96775.50;1777062;80;27569;-82
2020/12/27 11:09:07;;;;;;;21.30;13.55;;;;;;;5.90;58.14;96774.59;1776897;80;26143;-82
2020/12/27 11:11:35;;;;;;;18.45;10.28;;;;;;;6.08;57.91;96764.16;1777008;80;26289;-81
2020/12/27 11:14:05;;;;;;;18.55;11.38;;;;;;;6.02;57.04;96756.94;1777020;80;25779;-81
2020/12/27 11:16:33;;;;;;;22.15;13.53;;;;;;;6.01;57.57;96754.45;1777036;80;25764;-84
2020/12/27 11:19:01;;;;;;;24.05;14.20;;;;;;;6.20;56.93;96747.52;1777106;80;27567;-88
2020/12/27 11:21:30;;;;;;;28.73;15.88;;;;;;;6.17;56.39;96723.79;1776987;80;26229;-83
2020/12/27 11:23:58;;;;;;;30.10;16.87;;;;;;;6.30;56.75;96715.80;1777014;80;25836;-86
2020/12/27 11:26:26;;;;;;;24.50;14.00;;;;;;;6.50;56.60;96708.66;1776967;80;25778;-80
2020/12/27 11:28:53;;;;;;;26.07;14.25;;;;;;;6.67;56.20;96707.75;1770917;80;25704;-82
2020/12/27 11:31:21;;;;;;;26.12;14.65;;;;;;;6.80;56.04;96701.06;1761972;80;28594;-82